createdAt,value
2023-01-30T00:03:03.418Z,95243.94
2023-01-30T00:06:08.278Z,95247.38
2023-01-30T00:09:13.944Z,95236.75
2023-01-30T00:12:18.844Z,95236.25
2023-01-30T00:15:21.876Z,95232.81
2023-01-30T00:18:24.950Z,95239.69
2023-01-30T00:21:29.394Z,95233.28
2023-01-30T00:24:32.567Z,95243.72
2023-01-30T00:27:35.736Z,95237.13
2023-01-30T00:30:38.732Z,95237.34
2023-01-30T00:33:41.785Z,95246.09
2023-01-30T00:36:51.121Z,95246.09
2023-01-30T00:39:56.456Z,95230.44
2023-01-30T00:43:16.611Z,95229.34
2023-01-30T00:46:39.716Z,95229.16
2023-01-30T00:49:44.631Z,95224.81
2023-01-30T00:52:49.106Z,95224.31
2023-01-30T00:55:55.595Z,95223.53
2023-01-30T00:59:00.593Z,95230.44
2023-01-30T01:02:03.661Z,95227.00
2023-01-30T01:05:07.710Z,95230.72
2023-01-30T01:08:12.578Z,95218.22
2023-01-30T01:11:24.641Z,95220.88
2023-01-30T01:14:28.282Z,95221.97
2023-01-30T01:17:31.440Z,95223.53
2023-01-30T01:20:34.890Z,95219.59
2023-01-30T01:23:39.375Z,95213.50
2023-01-30T01:26:42.890Z,95211.63
2023-01-30T01:29:45.964Z,95191.09
2023-01-30T01:32:49.344Z,95208.19
2023-01-30T01:35:52.406Z,95201.09
2023-01-30T01:38:56.836Z,95184.22
2023-01-30T01:42:01.167Z,95195.66
2023-01-30T01:45:17.687Z,95199.78
2023-01-30T01:48:26.403Z,95197.13
2023-01-30T01:51:32.930Z,95201.88
2023-01-30T01:54:45.390Z,95211.63
2023-01-30T01:57:52.553Z,95204.22
2023-01-30T02:00:58.780Z,95198.97
2023-01-30T02:04:08.421Z,95207.69
2023-01-30T02:07:14.343Z,95207.38
2023-01-30T02:10:24.804Z,95187.16
2023-01-30T02:13:29.095Z,95209.56
2023-01-30T02:16:32.289Z,95197.41
2023-01-30T02:19:45.217Z,95198.19
2023-01-30T02:23:27.351Z,95203.44
2023-01-30T02:27:07.168Z,95200.00
2023-01-30T02:30:56.308Z,95199.22
2023-01-30T02:34:16.448Z,95198.13
2023-01-30T02:37:31.089Z,95205.63
2023-01-30T02:40:50.468Z,95183.13
2023-01-30T02:44:01.441Z,95188.84
2023-01-30T02:47:11.462Z,95158.81
2023-01-30T02:50:19.163Z,95193.91
2023-01-30T02:53:22.799Z,95178.72
2023-01-30T02:56:28.478Z,95183.25
2023-01-30T02:59:36.357Z,95180.16
2023-01-30T03:03:12.606Z,95161.97
2023-01-30T03:06:46.706Z,95190.72
2023-01-30T03:09:57.387Z,95182.63
2023-01-30T03:13:09.596Z,95191.25
2023-01-30T03:16:16.790Z,95172.88
2023-01-30T03:19:20.915Z,95153.69
2023-01-30T03:22:25.451Z,95168.88
2023-01-30T03:25:28.576Z,95163.06
2023-01-30T03:28:31.995Z,95156.66
2023-01-30T03:31:35.163Z,95157.47
2023-01-30T03:34:40.552Z,95160.91
2023-01-30T03:37:45.301Z,95148.97
2023-01-30T03:40:48.677Z,95147.91
2023-01-30T03:43:51.809Z,95152.44
2023-01-30T03:46:54.767Z,95155.88
2023-01-30T03:49:57.746Z,95156.16
2023-01-30T03:53:02.225Z,95156.66
2023-01-30T03:56:05.611Z,95162.00
2023-01-30T03:59:09.399Z,95151.34
2023-01-30T04:02:15.094Z,95151.34
2023-01-30T04:05:18.791Z,95150.56
2023-01-30T04:08:27.499Z,95142.84
2023-01-30T04:11:30.577Z,95147.13
2023-01-30T04:14:33.543Z,95149.25
2023-01-30T04:17:36.565Z,95148.16
2023-01-30T04:20:41.990Z,95146.59
2023-01-30T04:23:48.577Z,95144.47
2023-01-30T04:26:51.594Z,95140.28
2023-01-30T04:29:54.609Z,95148.16
2023-01-30T04:32:57.704Z,95150.03
2023-01-30T04:36:02.321Z,95148.16
2023-01-30T04:39:06.853Z,95137.16
2023-01-30T04:42:09.886Z,95148.47
2023-01-30T04:45:15.279Z,95150.94
2023-01-30T04:48:19.189Z,95139.78
2023-01-30T04:51:22.251Z,95131.25
2023-01-30T04:54:29.340Z,95132.22
2023-01-30T04:57:32.346Z,95123.06
2023-01-30T05:00:35.448Z,95129.16
2023-01-30T05:03:41.134Z,95127.09
2023-01-30T05:06:44.156Z,95126.47
2023-01-30T05:09:48.558Z,95123.44
2023-01-30T05:12:51.603Z,95125.16
2023-01-30T05:15:54.583Z,95120.22
2023-01-30T05:18:57.598Z,95127.34
2023-01-30T05:22:00.567Z,95127.09
2023-01-30T05:25:05.487Z,95129.75
2023-01-30T05:28:11.036Z,95123.97
2023-01-30T05:31:15.484Z,95138.75
2023-01-30T05:34:18.844Z,95129.41
2023-01-30T05:40:42.487Z,95126.25
2023-01-30T05:43:47.298Z,95128.34
2023-01-30T05:46:50.491Z,95128.34
2023-01-30T05:49:53.535Z,95133.06
2023-01-30T05:52:56.577Z,95128.91
2023-01-30T05:56:04.081Z,95143.72
2023-01-30T05:59:07.136Z,95145.88
2023-01-30T06:02:17.437Z,95142.69
2023-01-30T06:05:20.604Z,95141.66
2023-01-30T06:08:23.957Z,95138.47
2023-01-30T06:11:28.402Z,95143.28
2023-01-30T06:14:34.062Z,95142.00
2023-01-30T06:17:37.118Z,95143.88
2023-01-30T06:23:43.328Z,95136.00
2023-01-30T06:30:00.076Z,95126.81
2023-01-30T06:33:06.487Z,95127.91
2023-01-30T06:36:10.100Z,95137.56
2023-01-30T06:39:13.130Z,95137.56
2023-01-30T06:42:17.512Z,95130.78
2023-01-30T06:45:20.965Z,95135.59
2023-01-30T06:48:26.453Z,95137.75
2023-01-30T06:51:29.593Z,95142.28
2023-01-30T06:54:32.767Z,95135.59
2023-01-30T06:57:37.801Z,95137.47
2023-01-30T07:00:42.460Z,95146.41
2023-01-30T07:03:45.582Z,95141.09
2023-01-30T07:06:48.701Z,95152.53
2023-01-30T07:10:07.010Z,95153.63
2023-01-30T07:13:12.621Z,95156.28
2023-01-30T07:16:15.588Z,95159.72
2023-01-30T07:19:18.549Z,95159.72
2023-01-30T07:22:21.579Z,95158.03
2023-01-30T07:25:26.146Z,95161.13
2023-01-30T07:28:30.572Z,95163.19
2023-01-30T07:31:33.640Z,95168.69
2023-01-30T07:34:36.938Z,95169.69
2023-01-30T07:37:42.211Z,95174.59
2023-01-30T07:40:49.606Z,95175.22
2023-01-30T07:43:56.498Z,95170.19
2023-01-30T07:46:59.573Z,95176.06
2023-01-30T07:50:05.875Z,95174.19
2023-01-30T07:53:11.198Z,95152.81
2023-01-30T07:56:18.747Z,95163.06
2023-01-30T07:59:25.066Z,95148.97
2023-01-30T08:02:28.067Z,95141.41
2023-01-30T08:05:34.048Z,95140.22
2023-01-30T08:08:37.336Z,95138.63
2023-01-30T08:11:42.980Z,95136.75
2023-01-30T08:14:47.376Z,95137.34
2023-01-30T08:17:55.275Z,95136.88
2023-01-30T08:20:58.713Z,95137.06
2023-01-30T08:24:01.924Z,95143.47
2023-01-30T08:27:09.160Z,95138.44
2023-01-30T08:30:14.816Z,95128.59
2023-01-30T08:33:17.872Z,95121.00
2023-01-30T08:36:20.853Z,95124.66
2023-01-30T08:39:23.978Z,95129.69
2023-01-30T08:42:26.996Z,95111.16
2023-01-30T08:45:31.658Z,95114.50
2023-01-30T08:48:48.616Z,95112.63
2023-01-30T08:51:52.497Z,95107.91
2023-01-30T08:54:55.766Z,95113.72
2023-01-30T08:57:58.862Z,95096.97
2023-01-30T09:01:08.308Z,95102.78
2023-01-30T09:04:13.799Z,95097.75
2023-01-30T09:07:16.940Z,95100.91
2023-01-30T09:10:22.286Z,95094.31
2023-01-30T09:13:25.370Z,95094.22
2023-01-30T09:16:29.845Z,95085.44
2023-01-30T09:19:32.953Z,95089.69
2023-01-30T09:22:36.178Z,95079.03
2023-01-30T09:25:39.406Z,95078.75
2023-01-30T09:28:42.576Z,95079.53
2023-01-30T09:31:47.233Z,95081.09
2023-01-30T09:34:50.730Z,95082.50
2023-01-30T09:37:55.269Z,95079.84
2023-01-30T09:41:30.950Z,95079.53
2023-01-30T09:45:13.412Z,95076.88
2023-01-30T09:48:24.756Z,95068.69
2023-01-30T09:51:46.889Z,95065.44
2023-01-30T09:54:52.569Z,95038.09
2023-01-30T09:57:55.764Z,95048.03
2023-01-30T10:01:07.671Z,95055.91
2023-01-30T10:04:20.030Z,95040.06
2023-01-30T10:07:29.059Z,95037.88
2023-01-30T10:10:47.328Z,95036.31
2023-01-30T10:14:08.461Z,95021.25
2023-01-30T10:17:32.808Z,95021.91
2023-01-30T10:20:51.795Z,95021.13
2023-01-30T10:24:12.248Z,95006.75
2023-01-30T10:27:18.184Z,95012.84
2023-01-30T10:30:23.469Z,95002.22
2023-01-30T10:33:36.510Z,94993.75
2023-01-30T10:36:47.124Z,94987.34
2023-01-30T10:39:56.842Z,94982.03
2023-01-30T10:43:07.614Z,94975.16
2023-01-30T10:46:24.824Z,94968.75
2023-01-30T10:49:39.325Z,94959.66
2023-01-30T10:52:48.554Z,94959.66
2023-01-30T10:55:58.616Z,94954.84
2023-01-30T10:59:08.389Z,94937.78
2023-01-30T11:02:25.046Z,94926.19
2023-01-30T11:05:32.067Z,94912.78
2023-01-30T11:08:38.794Z,94906.66
2023-01-30T11:11:50.117Z,94909.84
2023-01-30T11:14:56.541Z,94885.03
2023-01-30T11:18:40.372Z,94901.56
2023-01-30T11:21:43.497Z,94895.16
2023-01-30T11:24:48.733Z,94884.50
2023-01-30T11:27:57.282Z,94875.25
2023-01-30T11:31:02.470Z,94867.78
2023-01-30T11:34:15.533Z,94862.44
2023-01-30T11:37:28.731Z,94864.31
2023-01-30T11:40:40.063Z,94851.34
2023-01-30T11:43:43.125Z,94841.56
2023-01-30T11:46:46.301Z,94848.84
2023-01-30T11:50:06.426Z,94841.16
2023-01-30T11:53:27.960Z,94827.41
2023-01-30T11:56:35.992Z,94821.78
2023-01-30T11:59:47.791Z,94811.44
2023-01-30T12:02:54.616Z,94811.91
2023-01-30T12:06:00.119Z,94801.84
2023-01-30T12:09:04.470Z,94784.03
2023-01-30T12:12:32.358Z,94793.59
2023-01-30T12:15:36.563Z,94781.69
2023-01-30T12:18:47.373Z,94783.75
2023-01-30T12:21:58.400Z,94780.78
2023-01-30T12:25:09.121Z,94779.22
2023-01-30T12:28:26.075Z,94773.13
2023-01-30T12:31:36.064Z,94773.91
2023-01-30T12:34:39.284Z,94761.50
2023-01-30T12:37:51.843Z,94762.75
2023-01-30T12:41:08.071Z,94761.97
2023-01-30T12:44:37.399Z,94736.44
2023-01-30T12:51:13.351Z,94744.06
2023-01-30T12:54:30.392Z,94735.44
2023-01-30T12:57:41.790Z,94715.81
2023-01-30T13:01:06.164Z,94719.78
2023-01-30T13:04:17.356Z,94719.47
2023-01-30T13:07:31.953Z,94720.88
2023-01-30T13:10:40.662Z,94719.16
2023-01-30T13:13:54.123Z,94720.19
2023-01-30T13:17:15.623Z,94715.19
2023-01-30T13:20:34.179Z,94711.28
2023-01-30T13:23:52.308Z,94711.28
2023-01-30T13:26:59.724Z,94709.09
2023-01-30T13:30:06.311Z,94703.00
2023-01-30T13:33:17.675Z,94685.44
2023-01-30T13:36:25.918Z,94692.34
2023-01-30T13:39:36.444Z,94678.56
2023-01-30T13:42:51.674Z,94686.25
2023-01-30T13:45:58.915Z,94679.38
2023-01-30T13:49:17.274Z,94674.34
2023-01-30T13:52:28.913Z,94670.91
2023-01-30T13:55:39.511Z,94681.53
2023-01-30T13:58:54.940Z,94682.63
2023-01-30T14:02:22.039Z,94682.31
2023-01-30T14:05:59.270Z,94677.94
2023-01-30T14:09:23.224Z,94662.72
2023-01-30T14:12:29.907Z,94679.97
2023-01-30T14:15:34.536Z,94683.72
2023-01-30T14:18:39.128Z,94682.16
2023-01-30T14:21:58.482Z,94678.41
2023-01-30T14:25:35.436Z,94676.84
2023-01-30T14:28:48.432Z,94678.41
2023-01-30T14:31:52.698Z,94676.53
2023-01-30T14:35:29.103Z,94679.50
2023-01-30T14:38:32.824Z,94678.41
2023-01-30T14:41:37.281Z,94677.63
2023-01-30T14:45:00.351Z,94674.66
2023-01-30T14:48:29.198Z,94665.13
2023-01-30T14:51:37.221Z,94667.78
2023-01-30T14:54:49.617Z,94664.03
2023-01-30T14:57:58.702Z,94662.28
2023-01-30T15:01:01.936Z,94650.97
2023-01-30T15:04:06.217Z,94656.97
2023-01-30T15:07:13.332Z,94651.50
2023-01-30T15:10:30.950Z,94660.41
2023-01-30T15:13:48.733Z,94664.63
2023-01-30T15:17:17.629Z,94658.22
2023-01-30T15:20:29.146Z,94664.16
2023-01-30T15:23:49.623Z,94658.06
2023-01-30T15:27:00.447Z,94670.56
2023-01-30T15:30:28.693Z,94669.00
2023-01-30T15:33:32.770Z,94668.69
2023-01-30T15:36:38.939Z,94671.66
2023-01-30T15:39:44.580Z,94677.78
2023-01-30T15:42:49.378Z,94684.97
2023-01-30T15:46:08.399Z,94680.72
2023-01-30T15:49:35.146Z,94674.63
2023-01-30T15:52:47.151Z,94673.66
2023-01-30T15:55:51.078Z,94680.72
2023-01-30T15:58:55.301Z,94670.69
2023-01-30T16:02:05.518Z,94670.38
2023-01-30T16:05:17.161Z,94655.19
2023-01-30T16:08:23.900Z,94658.19
2023-01-30T16:11:38.014Z,94651.59
2023-01-30T16:14:41.031Z,94652.38
2023-01-30T16:17:49.620Z,94652.38
2023-01-30T16:21:02.088Z,94654.25
2023-01-30T16:24:08.107Z,94640.31
2023-01-30T16:27:19.830Z,94647.84
2023-01-30T16:30:26.149Z,94631.88
2023-01-30T16:33:37.661Z,94641.94
2023-01-30T16:36:44.615Z,94636.13
2023-01-30T16:40:03.750Z,94643.69
2023-01-30T16:43:19.425Z,94639.44
2023-01-30T16:46:55.786Z,94643.38
2023-01-30T16:50:00.357Z,94635.22
2023-01-30T16:53:05.522Z,94643.69
2023-01-30T16:56:17.053Z,94643.09
2023-01-30T16:59:22.925Z,94644.06
2023-01-30T17:02:35.270Z,94642.81
2023-01-30T17:05:44.224Z,94643.28
2023-01-30T17:08:52.133Z,94636.72
2023-01-30T17:11:56.368Z,94646.25
2023-01-30T17:15:35.218Z,94650.78
2023-01-30T17:18:38.366Z,94657.69
2023-01-30T17:21:49.078Z,94650.94
2023-01-30T17:24:53.041Z,94645.25
2023-01-30T17:27:59.839Z,94648.06
2023-01-30T17:31:03.403Z,94649.31
2023-01-30T17:34:09.065Z,94651.19
2023-01-30T17:37:17.138Z,94648.31
2023-01-30T17:40:25.775Z,94638.00
2023-01-30T17:43:28.812Z,94633.78
2023-01-30T17:46:37.568Z,94636.75
2023-01-30T17:49:41.356Z,94631.44
2023-01-30T17:52:45.700Z,94621.41
2023-01-30T17:55:48.763Z,94630.16
2023-01-30T17:58:51.955Z,94632.03
2023-01-30T18:01:55.188Z,94635.78
2023-01-30T18:05:00.820Z,94624.84
2023-01-30T18:08:06.340Z,94623.59
2023-01-30T18:11:19.091Z,94626.09
2023-01-30T18:14:23.803Z,94625.19
2023-01-30T18:17:31.633Z,94618.19
2023-01-30T18:20:34.702Z,94615.44
2023-01-30T18:23:44.017Z,94620.91
2023-01-30T18:26:47.726Z,94610.75
2023-01-30T18:29:50.878Z,94610.44
2023-01-30T18:32:54.177Z,94619.69
2023-01-30T18:35:57.282Z,94621.28
2023-01-30T18:39:01.690Z,94612.94
2023-01-30T18:42:05.057Z,94615.94
2023-01-30T18:45:11.525Z,94625.53
2023-01-30T18:48:14.501Z,94624.44
2023-01-30T18:51:20.759Z,94621.47
2023-01-30T18:54:26.924Z,94617.53
2023-01-30T18:57:29.915Z,94617.53
2023-01-30T19:00:32.890Z,94601.34
2023-01-30T19:03:36.060Z,94625.63
2023-01-30T19:06:42.914Z,94622.69
2023-01-30T19:09:47.794Z,94618.41
2023-01-30T19:13:08.277Z,94620.50
2023-01-30T19:16:11.360Z,94623.94
2023-01-30T19:19:14.682Z,94638.81
2023-01-30T19:22:18.310Z,94630.16
2023-01-30T19:25:23.743Z,94630.00
2023-01-30T19:28:29.217Z,94627.34
2023-01-30T19:31:32.369Z,94621.91
2023-01-30T19:34:35.368Z,94619.22
2023-01-30T19:37:39.579Z,94602.47
2023-01-30T19:40:47.342Z,94609.06
2023-01-30T19:43:50.755Z,94582.59
2023-01-30T19:46:54.918Z,94599.72
2023-01-30T19:49:58.300Z,94587.47
2023-01-30T19:53:01.401Z,94589.84
2023-01-30T19:56:06.463Z,94592.50
2023-01-30T19:59:10.144Z,94592.50
2023-01-30T20:02:13.648Z,94587.59
2023-01-30T20:05:17.056Z,94562.72
2023-01-30T20:08:32.224Z,94586.03
2023-01-30T20:11:38.518Z,94579.94
2023-01-30T20:14:41.729Z,94565.69
2023-01-30T20:17:44.823Z,94570.53
2023-01-30T20:20:47.844Z,94564.91
2023-01-30T20:23:53.755Z,94557.72
2023-01-30T20:26:58.192Z,94564.28
2023-01-30T20:30:01.273Z,94563.50
2023-01-30T20:33:04.319Z,94564.59
2023-01-30T20:39:29.486Z,94549.25
2023-01-30T20:42:33.971Z,94561.47
2023-01-30T20:45:39.607Z,94556.16
2023-01-30T20:48:44.012Z,94563.81
2023-01-30T20:51:48.910Z,94555.94
2023-01-30T20:54:51.997Z,94562.38
2023-01-30T20:57:56.763Z,94563.75
2023-01-30T21:01:09.058Z,94563.75
2023-01-30T21:04:17.117Z,94575.81
2023-01-30T21:07:20.091Z,94562.03
2023-01-30T21:10:23.059Z,94570.03
2023-01-30T21:13:30.456Z,94568.44
2023-01-30T21:16:35.338Z,94570.63
2023-01-30T21:19:42.953Z,94558.25
2023-01-30T21:22:46.662Z,94551.25
2023-01-30T21:25:49.663Z,94555.78
2023-01-30T21:28:55.308Z,94561.09
2023-01-30T21:31:59.775Z,94558.44
2023-01-30T21:35:02.904Z,94555.00
2023-01-30T21:38:23.208Z,94550.47
2023-01-30T21:42:00.229Z,94547.31
2023-01-30T21:45:06.567Z,94554.22
2023-01-30T21:48:11.595Z,94553.91
2023-01-30T21:51:14.859Z,94550.47
2023-01-30T21:54:19.293Z,94539.47
2023-01-30T21:57:24.395Z,94558.44
2023-01-30T22:00:28.697Z,94561.09
2023-01-30T22:03:31.796Z,94565.63
2023-01-30T22:06:34.803Z,94564.03
2023-01-30T22:09:37.757Z,94568.56
2023-01-30T22:12:41.716Z,94570.16
2023-01-30T22:15:46.144Z,94563.56
2023-01-30T22:18:53.186Z,94568.09
2023-01-30T22:21:56.210Z,94573.41
2023-01-30T22:28:16.066Z,94561.84
2023-01-30T22:31:21.278Z,94559.34
2023-01-30T22:34:24.352Z,94550.88
2023-01-30T22:37:27.378Z,94549.31
2023-01-30T22:40:32.696Z,94554.63
2023-01-30T22:43:37.112Z,94553.84
2023-01-30T22:46:41.679Z,94550.72
2023-01-30T22:49:44.749Z,94563.41
2023-01-30T22:52:47.754Z,94556.53
2023-01-30T22:55:50.720Z,94561.84
2023-01-30T22:58:53.707Z,94556.81
2023-01-30T23:01:58.238Z,94559.78
2023-01-30T23:05:01.371Z,94568.25
2023-01-30T23:08:04.475Z,94570.91
2023-01-30T23:14:26.395Z,94556.81
2023-01-30T23:17:48.267Z,94551.50
2023-01-30T23:20:51.295Z,94554.94
2023-01-30T23:23:55.423Z,94547.59
2023-01-30T23:26:58.482Z,94557.91
2023-01-30T23:30:01.476Z,94553.69
2023-01-30T23:33:07.745Z,94551.50
2023-01-30T23:36:12.873Z,94529.41
2023-01-30T23:39:20.586Z,94539.31
2023-01-30T23:42:23.582Z,94527.13
2023-01-30T23:45:28.824Z,94526.81
2023-01-30T23:48:33.265Z,94508.94
2023-01-30T23:51:38.666Z,94512.56
2023-01-30T23:54:41.758Z,94520.22
2023-01-30T23:57:44.778Z,94514.13
